Time;durP1;ratioP1;P1;durP2;ratioP2;P2;SDS_P1;SDS_P2;PMS_P1;PMS_P2;Temp;Humidity;BMP_temperature;BMP_pressure;BME280_temperature;BME280_humidity;BME280_pressure;Samples;Min_cycle;Max_cycle;Signal;HPM_P1;HPM_P2
2022/01/15 00:00:17;;;;;;;4.10;2.63;;;;;;;4.70;100.00;94678.41;4973339;28;20207;-64
2022/01/15 00:02:43;;;;;;;3.07;2.30;;;;;;;4.68;100.00;94686.94;4972749;28;20177;-62
2022/01/15 00:05:09;;;;;;;3.57;2.63;;;;;;;4.70;100.00;94698.56;4973149;28;20310;-62
2022/01/15 00:07:34;;;;;;;4.67;2.57;;;;;;;4.75;100.00;94706.63;4972756;28;20185;-62
2022/01/15 00:09:59;;;;;;;4.07;2.67;;;;;;;4.76;100.00;94709.94;4972793;28;20571;-59
2022/01/15 00:12:25;;;;;;;3.40;2.37;;;;;;;4.74;100.00;94684.88;4972576;28;20267;-63
2022/01/15 00:14:52;;;;;;;4.33;2.50;;;;;;;4.76;100.00;94685.59;4972622;28;20297;-63
2022/01/15 00:17:33;;;;;;;2.97;1.93;;;;;;;4.69;100.00;94679.31;4972619;28;20187;-61
2022/01/15 00:20:05;;;;;;;6.90;3.10;;;;;;;4.68;100.00;94686.94;4971441;28;20387;-62
2022/01/15 00:22:31;;;;;;;4.83;2.80;;;;;;;4.64;100.00;94678.78;4972653;28;20172;-59
2022/01/15 00:24:56;;;;;;;3.47;2.47;;;;;;;4.66;100.00;94666.91;4971482;28;20212;-64
2022/01/15 00:27:21;;;;;;;3.40;2.37;;;;;;;4.65;100.00;94687.94;4972339;28;20177;-62
2022/01/15 00:29:47;;;;;;;4.23;2.60;;;;;;;4.64;100.00;94691.38;4972840;28;20227;-59
2022/01/15 00:32:12;;;;;;;3.20;2.43;;;;;;;4.60;100.00;94679.88;4971153;28;20188;-66
2022/01/15 00:34:38;;;;;;;3.67;2.30;;;;;;;4.64;100.00;94678.78;4972707;28;20205;-62
2022/01/15 00:37:03;;;;;;;4.47;2.63;;;;;;;4.69;100.00;94681.81;4972473;28;20180;-59
2022/01/15 00:39:29;;;;;;;5.50;2.50;;;;;;;4.65;100.00;94667.81;4971102;28;20709;-62
2022/01/15 00:41:54;;;;;;;3.50;2.50;;;;;;;4.67;100.00;94698.72;4970858;28;20657;-62
2022/01/15 00:44:20;;;;;;;4.50;2.67;;;;;;;4.69;100.00;94694.41;4972541;28;20237;-62
2022/01/15 00:46:46;;;;;;;3.30;2.30;;;;;;;4.68;100.00;94692.00;4972328;28;20572;-60
2022/01/15 00:49:11;;;;;;;6.30;3.00;;;;;;;4.66;100.00;94703.88;4972236;28;20215;-63
2022/01/15 00:51:38;;;;;;;3.83;2.63;;;;;;;4.62;100.00;94690.66;4972104;28;20307;-62
2022/01/15 00:54:04;;;;;;;4.63;2.53;;;;;;;4.59;100.00;94695.06;4972230;28;20230;-62
2022/01/15 00:56:30;;;;;;;7.57;3.57;;;;;;;4.62;100.00;94694.88;4972268;28;20272;-62
2022/01/15 00:58:56;;;;;;;3.53;2.40;;;;;;;4.64;100.00;94685.53;4971998;28;20204;-58
2022/01/15 01:01:22;;;;;;;5.90;2.40;;;;;;;4.61;100.00;94678.97;4978995;23;20622;-62
2022/01/15 01:03:50;;;;;;;4.43;3.40;;;;;;;4.60;100.00;94674.84;4972019;28;20664;-62
2022/01/15 01:06:16;;;;;;;4.97;2.63;;;;;;;4.59;100.00;94677.44;4971778;28;20207;-60
2022/01/15 01:08:42;;;;;;;3.53;2.30;;;;;;;4.64;100.00;94690.56;4971709;28;20255;-62
2022/01/15 01:11:17;;;;;;;4.03;2.40;;;;;;;4.61;100.00;94706.66;4971805;28;20705;-64
2022/01/15 01:24:06;;;;;;;3.27;2.13;;;;;;;4.61;100.00;94696.59;4971769;28;20611;-63
2022/01/15 01:26:41;;;;;;;3.90;2.37;;;;;;;4.61;100.00;94690.72;4970285;28;20212;-62
2022/01/15 01:31:39;;;;;;;4.60;2.67;;;;;;;4.64;100.00;94686.34;4979003;23;20319;-63
2022/01/15 01:34:09;;;;;;;3.37;2.33;;;;;;;4.59;100.00;94679.94;4971431;28;20644;-62
2022/01/15 01:39:21;;;;;;;3.77;2.63;;;;;;;4.55;100.00;94666.75;4971830;28;20245;-62
2022/01/15 01:42:08;;;;;;;3.57;2.53;;;;;;;4.53;100.00;94673.59;4971734;28;20221;-61
2022/01/15 01:44:39;;;;;;;3.60;2.50;;;;;;;4.48;100.00;94673.06;4971615;28;20598;-64
2022/01/15 01:47:13;;;;;;;3.57;2.67;;;;;;;4.49;100.00;94668.81;4970272;28;20184;-64
2022/01/15 01:49:39;;;;;;;8.90;3.30;;;;;;;4.46;100.00;94667.31;4971441;28;20210;-60
2022/01/15 01:52:05;;;;;;;5.37;2.73;;;;;;;4.39;100.00;94673.63;4971206;28;20176;-65
2022/01/15 01:54:30;;;;;;;5.00;3.00;;;;;;;4.42;100.00;94670.94;4971284;28;20730;-62
2022/01/15 01:56:56;;;;;;;6.77;3.40;;;;;;;4.44;100.00;94684.22;4971640;28;20196;-63
2022/01/15 01:59:22;;;;;;;5.30;2.97;;;;;;;4.45;100.00;94675.75;4971200;28;20199;-62
2022/01/15 02:01:47;;;;;;;5.77;3.00;;;;;;;4.46;100.00;94686.66;4971097;28;20176;-65
2022/01/15 02:04:13;;;;;;;4.30;2.90;;;;;;;4.45;100.00;94695.09;4971306;28;20570;-61
2022/01/15 02:06:38;;;;;;;5.13;3.00;;;;;;;4.47;100.00;94698.31;4969512;28;20262;-61
2022/01/15 02:09:08;;;;;;;4.83;3.03;;;;;;;4.45;100.00;94687.53;4971248;28;20192;-62
2022/01/15 02:11:34;;;;;;;3.80;2.83;;;;;;;4.46;100.00;94697.53;4969807;28;20253;-64
2022/01/15 02:14:00;;;;;;;4.73;2.77;;;;;;;4.52;100.00;94702.19;4969625;28;20223;-59
2022/01/15 02:16:25;;;;;;;3.87;2.37;;;;;;;4.53;100.00;94716.38;4970732;28;20582;-60
2022/01/15 02:18:54;;;;;;;3.90;3.13;;;;;;;4.56;100.00;94713.69;4970763;28;20259;-60
2022/01/15 02:23:50;;;;;;;4.87;3.03;;;;;;;4.50;100.00;94713.25;4970968;28;20185;-62
2022/01/15 02:26:20;;;;;;;5.67;3.10;;;;;;;4.46;100.00;94721.88;4970898;28;20199;-61
2022/01/15 02:28:52;;;;;;;4.73;2.83;;;;;;;4.48;100.00;94722.59;4970546;28;20177;-63
2022/01/15 02:31:19;;;;;;;6.07;2.57;;;;;;;4.45;100.00;94720.25;4971310;28;20218;-59
2022/01/15 02:33:46;;;;;;;4.77;3.27;;;;;;;4.46;100.00;94720.19;4970516;28;20618;-62
2022/01/15 02:36:15;;;;;;;4.17;2.70;;;;;;;4.45;100.00;94720.25;4969427;28;20201;-61
2022/01/15 02:38:42;;;;;;;4.83;3.30;;;;;;;4.52;100.00;94739.94;4970506;28;20185;-64
2022/01/15 02:41:08;;;;;;;5.00;2.67;;;;;;;4.49;100.00;94732.56;4969296;28;20279;-65
2022/01/15 02:43:35;;;;;;;5.10;3.30;;;;;;;4.56;100.00;94775.81;4969199;28;20745;-60
2022/01/15 02:46:34;;;;;;;4.53;3.13;;;;;;;4.52;100.00;94764.28;4969361;28;20235;-62
2022/01/15 02:49:03;;;;;;;5.73;3.10;;;;;;;4.52;100.00;94752.53;4970529;28;20184;-64
2022/01/15 02:51:32;;;;;;;5.93;3.67;;;;;;;4.53;100.00;94759.16;4970475;28;20697;-62
2022/01/15 02:53:58;;;;;;;5.30;3.07;;;;;;;4.48;100.00;94755.31;4970171;28;20212;-60
2022/01/15 02:56:35;;;;;;;6.00;3.53;;;;;;;4.47;100.00;94759.53;4970559;28;20197;-60
2022/01/15 02:59:04;;;;;;;6.37;3.80;;;;;;;4.48;100.00;94745.25;4970522;28;20199;-62
2022/01/15 03:01:30;;;;;;;7.43;4.00;;;;;;;4.44;100.00;94753.88;4970373;28;20261;-62
2022/01/15 03:03:56;;;;;;;4.70;3.37;;;;;;;4.38;100.00;94745.00;4970286;28;20198;-62
2022/01/15 03:06:22;;;;;;;5.67;3.37;;;;;;;4.39;100.00;94748.28;4970450;28;20197;-61
2022/01/15 03:08:50;;;;;;;5.07;3.20;;;;;;;4.38;100.00;94750.03;4970308;28;20187;-62
2022/01/15 03:11:16;;;;;;;5.30;3.23;;;;;;;4.32;100.00;94750.38;4970184;28;20257;-63
2022/01/15 03:13:43;;;;;;;7.53;3.60;;;;;;;4.31;100.00;94748.75;4970063;28;20204;-61
2022/01/15 03:16:13;;;;;;;5.27;3.07;;;;;;;4.37;100.00;94760.97;4968845;28;20294;-62
2022/01/15 03:18:38;;;;;;;4.67;3.13;;;;;;;4.35;100.00;94761.94;4968800;28;20188;-64
2022/01/15 03:21:04;;;;;;;5.73;3.60;;;;;;;4.38;100.00;94786.94;4968780;28;20258;-65
2022/01/15 03:23:30;;;;;;;5.40;3.30;;;;;;;4.31;100.00;94773.91;4970012;28;20213;-64
2022/01/15 03:25:55;;;;;;;5.33;3.50;;;;;;;4.24;100.00;94793.59;4969713;28;20665;-60
2022/01/15 03:28:21;;;;;;;8.17;3.73;;;;;;;4.21;100.00;94788.75;4970105;28;20188;-62
2022/01/15 03:30:47;;;;;;;7.53;3.73;;;;;;;4.18;100.00;94803.22;4970468;28;20221;-63
2022/01/15 03:33:12;;;;;;;7.60;4.67;;;;;;;4.10;100.00;94810.38;4968327;28;20204;-64
2022/01/15 03:35:39;;;;;;;6.53;3.97;;;;;;;4.01;100.00;94804.16;4970183;28;20629;-65
2022/01/15 03:38:05;;;;;;;7.33;4.67;;;;;;;4.04;100.00;94815.78;4968609;28;20217;-61
2022/01/15 03:40:32;;;;;;;8.33;4.73;;;;;;;3.96;100.00;94815.41;4968549;28;20407;-64
2022/01/15 03:42:57;;;;;;;7.20;3.83;;;;;;;3.86;100.00;94796.66;4969947;28;20180;-64
2022/01/15 03:45:29;;;;;;;8.50;4.00;;;;;;;3.87;100.00;94796.59;4969913;28;20207;-65
2022/01/15 03:47:57;;;;;;;8.13;4.77;;;;;;;3.88;100.00;94792.38;4969898;28;20611;-65
2022/01/15 03:50:23;;;;;;;7.47;4.57;;;;;;;3.87;100.00;94784.03;4969893;28;20227;-62
2022/01/15 03:52:55;;;;;;;6.83;4.10;;;;;;;3.89;100.00;94784.75;4969529;28;20214;-63
2022/01/15 03:55:22;;;;;;;7.93;4.03;;;;;;;3.89;100.00;94791.47;4969917;28;20219;-59
2022/01/15 03:57:47;;;;;;;9.57;4.37;;;;;;;3.89;100.00;94792.28;4969625;28;20657;-63
2022/01/15 04:00:20;;;;;;;6.63;4.17;;;;;;;3.91;100.00;94794.72;4969594;28;20278;-62
2022/01/15 04:02:46;;;;;;;8.40;4.30;;;;;;;3.92;100.00;94796.34;4969737;28;20611;-62
2022/01/15 04:05:13;;;;;;;9.57;4.23;;;;;;;3.98;100.00;94801.03;4969896;28;20487;-62
2022/01/15 04:07:38;;;;;;;6.27;3.90;;;;;;;3.98;100.00;94776.66;4969540;28;20201;-62
2022/01/15 04:10:06;;;;;;;8.10;4.57;;;;;;;4.01;100.00;94781.53;4969737;28;20265;-62
2022/01/15 04:12:32;;;;;;;8.57;3.97;;;;;;;4.03;100.00;94809.91;4968237;28;20342;-62
2022/01/15 04:14:57;;;;;;;6.20;3.70;;;;;;;4.06;100.00;94813.97;4969352;28;20300;-58
2022/01/15 04:17:23;;;;;;;7.80;4.43;;;;;;;4.05;100.00;94822.41;4969432;28;20625;-62
2022/01/15 04:19:48;;;;;;;7.83;4.10;;;;;;;4.03;100.00;94821.69;4968057;28;20205;-61
2022/01/15 04:22:14;;;;;;;8.10;5.10;;;;;;;4.00;100.00;94824.38;4969541;28;20184;-59
2022/01/15 04:24:39;;;;;;;7.20;4.50;;;;;;;3.97;100.00;94829.56;4969279;28;20242;-59
2022/01/15 04:27:05;;;;;;;6.83;4.13;;;;;;;3.98;100.00;94832.00;4967876;28;20180;-59
2022/01/15 04:29:33;;;;;;;10.50;5.23;;;;;;;3.88;100.00;94812.50;4968883;28;20188;-61
2022/01/15 04:32:00;;;;;;;7.73;4.80;;;;;;;3.85;100.00;94825.22;4967705;28;20257;-61
2022/01/15 04:34:27;;;;;;;8.90;5.53;;;;;;;3.77;100.00;94803.03;4968950;28;20585;-62
2022/01/15 04:37:03;;;;;;;8.67;5.40;;;;;;;3.75;100.00;94826.63;4971919;28;20213;-62
2022/01/15 04:39:29;;;;;;;9.80;6.10;;;;;;;3.72;100.00;94836.84;4971177;28;20218;-58
2022/01/15 04:41:54;;;;;;;8.53;5.47;;;;;;;3.70;100.00;94836.13;4972169;28;20194;-62
2022/01/15 04:44:20;;;;;;;9.43;5.73;;;;;;;3.68;100.00;94816.09;4954779;28;20195;-63
2022/01/15 04:46:45;;;;;;;8.80;5.13;;;;;;;3.71;100.00;94817.66;4972482;28;20669;-62
2022/01/15 04:49:11;;;;;;;10.37;5.37;;;;;;;3.65;100.00;94823.84;4972236;28;20196;-61
2022/01/15 04:51:36;;;;;;;15.23;5.17;;;;;;;3.60;100.00;94829.97;4972037;28;20283;-62
2022/01/15 04:54:03;;;;;;;7.03;5.33;;;;;;;3.61;100.00;94826.59;4972129;28;20316;-62
2022/01/15 04:56:29;;;;;;;11.43;6.53;;;;;;;3.59;100.00;94824.16;4972442;28;20216;-61
2022/01/15 04:58:55;;;;;;;11.77;6.23;;;;;;;3.58;100.00;94816.69;4972112;28;20176;-61
2022/01/15 05:01:20;;;;;;;10.23;6.00;;;;;;;3.52;100.00;94800.25;4971932;28;20203;-62
2022/01/15 05:03:46;;;;;;;7.73;5.67;;;;;;;3.54;100.00;94817.75;4971923;28;20187;-58
2022/01/15 05:06:11;;;;;;;9.20;6.03;;;;;;;3.53;100.00;94816.16;4971822;28;20200;-62
2022/01/15 05:08:37;;;;;;;11.90;5.80;;;;;;;3.49;100.00;94830.59;4971913;28;20183;-59
2022/01/15 05:11:12;;;;;;;10.87;6.63;;;;;;;3.48;100.00;94825.63;4971913;28;20196;-64
2022/01/15 05:13:39;;;;;;;10.30;6.27;;;;;;;3.49;100.00;94834.78;4970482;28;20211;-59
2022/01/15 05:16:05;;;;;;;9.83;6.37;;;;;;;3.47;100.00;94839.91;4971785;28;20196;-62
2022/01/15 05:18:31;;;;;;;12.03;6.30;;;;;;;3.47;100.00;94826.53;4971628;28;20222;-59
2022/01/15 05:20:57;;;;;;;10.10;5.93;;;;;;;3.41;100.00;94836.00;4972291;28;20215;-62
2022/01/15 05:23:23;;;;;;;11.03;6.00;;;;;;;3.38;100.00;94835.38;4972077;28;20185;-62
2022/01/15 05:25:48;;;;;;;14.00;7.33;;;;;;;3.35;100.00;94845.59;4972164;28;20219;-59
2022/01/15 05:28:14;;;;;;;10.17;6.67;;;;;;;3.32;100.00;94853.28;4971587;28;20211;-63
2022/01/15 05:30:39;;;;;;;13.07;7.53;;;;;;;3.27;100.00;94848.50;4970048;28;20241;-59
2022/01/15 05:33:05;;;;;;;10.47;6.63;;;;;;;3.24;100.00;94841.16;4971615;28;20200;-62
2022/01/15 05:35:30;;;;;;;11.90;6.23;;;;;;;3.27;100.00;94842.69;4972104;28;20210;-62
2022/01/15 05:37:57;;;;;;;13.20;6.53;;;;;;;3.25;100.00;94857.03;4971646;28;20188;-59
2022/01/15 05:40:24;;;;;;;10.27;5.93;;;;;;;3.26;100.00;94858.63;4970277;28;20765;-63
2022/01/15 05:42:51;;;;;;;17.03;8.67;;;;;;;3.29;100.00;94861.00;4971649;28;20294;-59
2022/01/15 05:45:17;;;;;;;13.90;7.93;;;;;;;3.25;100.00;94867.06;4971616;28;20713;-59
2022/01/15 05:47:43;;;;;;;11.07;6.70;;;;;;;3.15;100.00;94859.19;4971105;28;20286;-62
2022/01/15 05:50:09;;;;;;;12.00;6.53;;;;;;;3.21;100.00;94871.44;4970060;28;20204;-63
2022/01/15 05:52:35;;;;;;;12.13;7.43;;;;;;;3.21;100.00;94865.63;4971176;28;20184;-59
2022/01/15 05:55:00;;;;;;;12.33;6.77;;;;;;;3.18;100.00;94865.78;4971933;28;20207;-64
2022/01/15 05:57:25;;;;;;;12.30;6.63;;;;;;;3.14;100.00;94874.34;4970465;28;20223;-64
2022/01/15 05:59:51;;;;;;;12.47;6.93;;;;;;;3.17;100.00;94872.47;4971344;28;20220;-62
2022/01/15 06:02:21;;;;;;;12.50;6.47;;;;;;;3.18;100.00;94873.31;4971256;28;20210;-63
2022/01/15 06:04:47;;;;;;;13.53;7.07;;;;;;;3.16;100.00;94896.00;4971501;28;20254;-62
2022/01/15 06:07:12;;;;;;;12.00;6.77;;;;;;;3.11;100.00;94889.59;4971061;28;20183;-61
2022/01/15 06:09:38;;;;;;;12.47;6.73;;;;;;;3.08;100.00;94888.03;4970906;28;20204;-61
2022/01/15 06:12:04;;;;;;;10.77;6.13;;;;;;;3.17;100.00;94891.78;4969751;28;20242;-62
2022/01/15 06:14:31;;;;;;;11.83;6.40;;;;;;;3.11;100.00;94895.41;4969581;28;20277;-65
2022/01/15 06:16:58;;;;;;;17.33;6.80;;;;;;;3.05;100.00;94898.22;4971086;28;20206;-62
2022/01/15 06:19:23;;;;;;;9.70;5.87;;;;;;;3.03;100.00;94911.78;4971042;28;20188;-59
2022/01/15 06:21:49;;;;;;;12.53;6.67;;;;;;;3.06;100.00;94909.09;4970787;28;20234;-60
2022/01/15 06:24:14;;;;;;;11.87;7.33;;;;;;;3.02;100.00;94933.56;4970641;28;20670;-59
2022/01/15 06:26:40;;;;;;;13.93;7.10;;;;;;;3.08;100.00;94934.94;4970730;28;20563;-60
2022/01/15 06:29:05;;;;;;;14.40;7.60;;;;;;;3.05;100.00;94930.88;4970626;28;20192;-59
2022/01/15 06:31:31;;;;;;;14.67;7.70;;;;;;;3.05;100.00;94920.84;4971319;28;20219;-62
2022/01/15 06:34:00;;;;;;;14.97;7.87;;;;;;;2.99;100.00;94937.94;4971019;28;20224;-62
2022/01/15 06:36:25;;;;;;;13.47;6.90;;;;;;;3.03;100.00;94934.38;4970485;28;20629;-59
2022/01/15 06:38:50;;;;;;;12.13;6.60;;;;;;;3.03;100.00;94935.16;4970564;28;20741;-60
2022/01/15 06:41:16;;;;;;;12.20;7.37;;;;;;;2.97;100.00;94953.06;4970453;28;20238;-63
2022/01/15 06:43:41;;;;;;;13.77;7.30;;;;;;;2.92;100.00;94960.03;4970612;28;20180;-61
2022/01/15 06:46:07;;;;;;;11.83;6.93;;;;;;;2.94;100.00;94954.91;4970699;28;20207;-63
2022/01/15 06:48:32;;;;;;;11.03;6.50;;;;;;;3.02;100.00;94957.84;4953272;28;20215;-63
2022/01/15 06:50:58;;;;;;;16.00;8.43;;;;;;;2.97;100.00;94960.59;4971438;28;20598;-59
2022/01/15 06:53:24;;;;;;;12.70;6.87;;;;;;;2.91;100.00;94968.44;4970321;28;20354;-60
2022/01/15 06:55:52;;;;;;;12.37;6.80;;;;;;;3.07;100.00;94948.41;4970076;28;20697;-58
2022/01/15 06:58:20;;;;;;;11.60;7.73;;;;;;;4.46;100.00;94964.28;4952775;28;20218;-59
2022/01/15 07:00:46;;;;;;;15.40;7.93;;;;;;;3.54;100.00;94998.69;4970780;28;20208;-64
2022/01/15 07:03:12;;;;;;;10.80;6.73;;;;;;;3.31;100.00;94997.38;4968897;28;20195;-63
2022/01/15 07:05:37;;;;;;;11.47;7.50;;;;;;;3.10;100.00;94990.91;4970539;28;20212;-62
2022/01/15 07:08:03;;;;;;;11.50;7.17;;;;;;;3.17;100.00;94988.00;4970334;28;20608;-62
2022/01/15 07:10:29;;;;;;;13.33;7.03;;;;;;;3.16;100.00;95010.69;4970000;28;20279;-62
2022/01/15 07:12:54;;;;;;;13.63;7.33;;;;;;;3.16;100.00;95001.47;4968085;28;20381;-62
2022/01/15 07:15:20;;;;;;;12.13;7.53;;;;;;;3.29;100.00;94997.44;4968000;28;20219;-62
2022/01/15 07:17:48;;;;;;;13.53;7.43;;;;;;;3.33;100.00;95013.19;4967720;28;20191;-62
2022/01/15 07:20:15;;;;;;;14.17;8.07;;;;;;;3.34;100.00;95014.78;4968289;28;20251;-61
2022/01/15 07:22:41;;;;;;;11.43;6.77;;;;;;;3.36;100.00;95021.38;4969783;28;20263;-59
2022/01/15 07:25:09;;;;;;;12.20;7.37;;;;;;;3.43;100.00;95031.94;4970300;28;20314;-63
2022/01/15 07:27:34;;;;;;;15.93;7.77;;;;;;;3.33;100.00;95028.25;4969814;28;20237;-62
2022/01/15 07:30:01;;;;;;;12.77;7.67;;;;;;;3.51;100.00;95037.38;4968532;28;20208;-63
2022/01/15 07:32:27;;;;;;;12.77;7.03;;;;;;;3.47;100.00;95035.91;4969987;28;20560;-64
2022/01/15 07:34:52;;;;;;;17.63;7.63;;;;;;;3.43;100.00;95040.25;4969770;28;20304;-64
2022/01/15 07:37:18;;;;;;;14.13;8.17;;;;;;;3.42;100.00;95048.69;4969467;28;20654;-63
2022/01/15 07:39:43;;;;;;;14.53;7.67;;;;;;;3.43;100.00;95040.25;4969877;28;20258;-62
2022/01/15 07:42:10;;;;;;;12.20;8.30;;;;;;;3.59;100.00;95054.56;4969593;28;20617;-61
2022/01/15 07:44:36;;;;;;;13.23;8.33;;;;;;;3.47;100.00;95050.16;4969597;28;20612;-60
2022/01/15 07:47:02;;;;;;;13.40;8.30;;;;;;;3.45;100.00;95042.72;4969512;28;20241;-64
2022/01/15 07:49:27;;;;;;;13.57;8.70;;;;;;;3.50;100.00;95047.47;4969924;28;20192;-63
2022/01/15 07:51:52;;;;;;;13.40;8.60;;;;;;;3.45;100.00;95046.91;4969983;28;20234;-61
2022/01/15 07:54:18;;;;;;;15.63;8.30;;;;;;;3.42;100.00;95053.72;4969649;28;20689;-62
2022/01/15 07:56:44;;;;;;;13.03;7.70;;;;;;;3.47;100.00;95062.72;4969939;28;20172;-64
2022/01/15 07:59:09;;;;;;;14.47;9.00;;;;;;;3.59;100.00;95067.94;4969573;28;20196;-61
2022/01/15 08:01:35;;;;;;;13.77;8.17;;;;;;;3.57;100.00;95087.31;4969324;28;20200;-61
2022/01/15 08:04:02;;;;;;;16.13;8.47;;;;;;;3.54;100.00;95079.09;4969473;28;20216;-65
2022/01/15 08:06:28;;;;;;;15.63;8.70;;;;;;;3.62;100.00;95084.56;4969318;28;20210;-65
2022/01/15 08:08:53;;;;;;;17.53;8.77;;;;;;;3.59;100.00;95089.75;4968110;28;20184;-65
2022/01/15 08:11:19;;;;;;;18.63;8.90;;;;;;;3.54;100.00;95092.47;4972086;28;20208;-63
2022/01/15 08:13:49;;;;;;;15.47;8.80;;;;;;;3.59;100.00;95099.78;4973058;28;20208;-67
2022/01/15 08:16:14;;;;;;;16.23;9.23;;;;;;;3.56;100.00;95102.44;4974195;28;20200;-60
2022/01/15 08:18:40;;;;;;;15.90;9.33;;;;;;;3.55;100.00;95099.16;4972679;28;20195;-59
2022/01/15 08:21:06;;;;;;;15.00;8.70;;;;;;;3.54;100.00;95092.47;4971421;28;20633;-60
2022/01/15 08:23:35;;;;;;;15.53;9.03;;;;;;;3.56;100.00;95115.00;4971136;28;20231;-62
2022/01/15 08:26:01;;;;;;;15.60;9.30;;;;;;;3.56;100.00;95110.00;4971253;28;20224;-60
2022/01/15 08:28:27;;;;;;;12.73;8.00;;;;;;;3.49;100.00;95108.69;4972290;28;20230;-63
2022/01/15 08:30:52;;;;;;;24.00;9.40;;;;;;;3.47;100.00;95110.47;4971265;28;20307;-61
2022/01/15 08:33:18;;;;;;;16.80;9.33;;;;;;;3.55;100.00;95120.94;4972482;28;20204;-63
2022/01/15 08:35:43;;;;;;;14.53;8.87;;;;;;;3.58;100.00;95136.69;4972754;28;20295;-62
2022/01/15 08:38:09;;;;;;;18.23;10.27;;;;;;;3.67;100.00;95140.44;4955070;28;20267;-59
2022/01/15 08:40:36;;;;;;;16.60;9.73;;;;;;;3.75;100.00;95151.75;4972439;28;20677;-59
2022/01/15 08:43:03;;;;;;;16.43;9.03;;;;;;;3.74;100.00;95144.25;4972012;28;20196;-61
2022/01/15 08:45:29;;;;;;;21.37;10.13;;;;;;;3.68;100.00;95150.41;4972070;28;20208;-60
2022/01/15 08:47:54;;;;;;;17.47;9.80;;;;;;;3.72;100.00;95151.06;4970695;28;20189;-64
2022/01/15 08:50:21;;;;;;;17.93;9.27;;;;;;;3.73;100.00;95161.06;4970936;28;20311;-59
2022/01/15 08:52:47;;;;;;;14.53;9.07;;;;;;;3.66;100.00;95153.88;4972020;28;20176;-64
2022/01/15 08:55:14;;;;;;;15.80;9.90;;;;;;;3.58;100.00;95144.22;4972462;28;20704;-59
2022/01/15 08:57:40;;;;;;;17.33;10.13;;;;;;;3.69;100.00;95151.22;4971727;28;20234;-63
2022/01/15 09:00:08;;;;;;;15.97;9.27;;;;;;;3.55;100.00;95154.44;4972305;28;20196;-61
2022/01/15 09:02:34;;;;;;;14.60;8.73;;;;;;;3.68;100.00;95165.50;4971918;28;20555;-60
2022/01/15 09:05:00;;;;;;;16.37;9.73;;;;;;;3.73;100.00;95170.31;4972177;28;20204;-63
2022/01/15 09:07:25;;;;;;;14.77;9.03;;;;;;;4.03;100.00;95196.41;4970419;28;20189;-63
2022/01/15 09:09:51;;;;;;;12.30;7.67;;;;;;;4.25;100.00;95212.84;4972135;28;20209;-64
2022/01/15 09:12:17;;;;;;;13.63;8.80;;;;;;;4.45;100.00;95219.38;4971700;28;20190;-62
2022/01/15 09:14:43;;;;;;;16.40;9.20;;;;;;;4.79;100.00;95228.47;4971937;28;20224;-62
2022/01/15 09:17:09;;;;;;;18.90;9.83;;;;;;;4.65;100.00;95215.81;4971822;28;20266;-59
2022/01/15 09:19:35;;;;;;;14.73;8.30;;;;;;;4.53;100.00;95207.19;4971815;28;20286;-63
2022/01/15 09:22:01;;;;;;;17.27;9.33;;;;;;;4.38;100.00;95192.91;4971303;28;20185;-62
2022/01/15 09:24:26;;;;;;;14.77;8.67;;;;;;;4.28;100.00;95186.75;4971846;28;20207;-62
2022/01/15 09:32:07;;;;;;;15.07;7.97;;;;;;;4.01;100.00;95180.59;4972066;28;20575;-62
2022/01/15 09:34:34;;;;;;;16.53;8.90;;;;;;;3.86;100.00;95158.72;4969983;28;20241;-61
2022/01/15 09:37:01;;;;;;;16.00;8.00;;;;;;;3.98;100.00;95165.69;4971136;28;20237;-61
2022/01/15 09:39:27;;;;;;;15.83;8.97;;;;;;;3.90;100.00;95166.03;4971626;28;20184;-60
2022/01/15 09:41:55;;;;;;;14.60;8.00;;;;;;;3.98;100.00;95181.56;4972116;28;20614;-63
2022/01/15 09:44:22;;;;;;;13.87;8.57;;;;;;;4.08;100.00;95181.91;4971464;28;20215;-64
2022/01/15 09:46:48;;;;;;;12.57;8.20;;;;;;;4.11;100.00;95175.03;4971594;28;20256;-63
2022/01/15 09:49:19;;;;;;;18.87;8.90;;;;;;;4.24;100.00;95190.31;4972345;28;20237;-64
2022/01/15 09:51:46;;;;;;;13.80;7.93;;;;;;;4.89;100.00;95230.44;4970919;28;20180;-63
2022/01/15 09:54:13;;;;;;;12.03;7.73;;;;;;;5.46;98.80;95260.94;4971074;28;20312;-63
2022/01/15 09:56:39;;;;;;;11.33;7.70;;;;;;;5.83;95.11;95290.78;4971235;28;20193;-64
2022/01/15 09:59:04;;;;;;;15.30;6.90;;;;;;;5.62;95.61;95264.22;4971419;28;20647;-62
2022/01/15 10:01:31;;;;;;;12.17;7.27;;;;;;;5.78;94.29;95287.69;4971147;28;20211;-62
2022/01/15 10:03:59;;;;;;;14.33;8.23;;;;;;;6.19;92.76;95303.88;4971070;28;20188;-63
2022/01/15 10:06:25;;;;;;;11.40;6.93;;;;;;;5.38;93.84;95273.97;4969522;28;20295;-62
2022/01/15 10:09:00;;;;;;;10.90;6.90;;;;;;;4.74;96.92;95206.09;4971005;28;20202;-61
2022/01/15 10:11:47;;;;;;;11.43;7.20;;;;;;;4.91;96.31;95218.56;4970901;28;20222;-60
2022/01/15 10:14:32;;;;;;;11.07;7.07;;;;;;;5.05;96.61;95226.19;4970750;28;20262;-61
2022/01/15 10:17:03;;;;;;;10.97;6.67;;;;;;;5.83;92.70;95283.22;4970673;28;20178;-64
2022/01/15 10:19:34;;;;;;;10.83;6.20;;;;;;;6.40;90.62;95312.72;4970930;28;20180;-62
2022/01/15 10:22:12;;;;;;;11.23;7.10;;;;;;;6.70;88.04;95338.75;4970849;28;20174;-60
2022/01/15 10:24:40;;;;;;;10.23;7.70;;;;;;;7.01;87.06;95336.94;4970724;28;20261;-62
2022/01/15 10:27:24;;;;;;;14.57;7.97;;;;;;;7.04;85.97;95334.22;4970564;28;20175;-62
2022/01/15 10:29:57;;;;;;;11.67;7.37;;;;;;;6.90;86.71;95298.84;4970628;28;20273;-60
2022/01/15 10:32:25;;;;;;;14.50;7.63;;;;;;;6.82;87.01;95288.38;4969778;28;20175;-60
2022/01/15 10:34:51;;;;;;;11.70;7.10;;;;;;;6.49;88.54;95265.94;4970547;28;20223;-61
2022/01/15 10:37:20;;;;;;;15.20;9.00;;;;;;;6.86;86.88;95289.81;4970232;28;20187;-62
2022/01/15 10:40:02;;;;;;;10.87;7.30;;;;;;;6.66;87.90;95273.34;4970605;28;20215;-64
2022/01/15 10:42:29;;;;;;;11.87;7.23;;;;;;;6.00;91.34;95199.81;4969178;28;20179;-63
2022/01/15 10:44:57;;;;;;;11.37;7.27;;;;;;;5.94;92.04;95203.53;4969960;28;20246;-63
2022/01/15 10:47:26;;;;;;;12.60;7.30;;;;;;;5.78;92.85;95191.84;4967995;28;20208;-62
2022/01/15 10:49:52;;;;;;;12.63;7.33;;;;;;;5.54;93.86;95173.06;4970497;28;20805;-61
2022/01/15 10:52:21;;;;;;;12.73;7.27;;;;;;;5.79;93.35;95184.22;4969933;28;20218;-59
2022/01/15 10:55:00;;;;;;;12.97;8.17;;;;;;;5.82;92.34;95208.44;4970175;28;20304;-64
2022/01/15 10:57:47;;;;;;;11.77;6.97;;;;;;;5.92;91.04;95240.66;4970425;28;20186;-62
2022/01/15 11:00:17;;;;;;;10.83;7.40;;;;;;;5.68;90.78;95228.56;4968597;28;20224;-61
2022/01/15 11:02:48;;;;;;;11.60;6.93;;;;;;;5.86;89.44;95251.09;4970403;28;20179;-61
2022/01/15 11:05:39;;;;;;;13.10;6.67;;;;;;;6.59;86.85;95289.75;4970502;28;20233;-64
2022/01/15 11:08:16;;;;;;;11.57;6.33;;;;;;;6.33;87.87;95276.13;4970178;28;20264;-65
2022/01/15 11:10:51;;;;;;;10.63;6.80;;;;;;;6.08;88.64;95260.75;4970863;28;20268;-62
2022/01/15 11:13:20;;;;;;;13.33;6.77;;;;;;;6.14;88.26;95264.66;4968674;28;20211;-63
2022/01/15 11:15:49;;;;;;;17.57;8.00;;;;;;;5.88;89.32;95239.19;4970492;28;20692;-64
2022/01/15 11:18:27;;;;;;;17.03;6.87;;;;;;;5.99;89.19;95241.13;4969999;28;20207;-64
2022/01/15 11:20:59;;;;;;;12.50;7.07;;;;;;;6.22;88.57;95259.97;4970390;28;20295;-63
2022/01/15 11:23:27;;;;;;;9.83;7.10;;;;;;;5.98;88.59;95241.22;4969772;28;20244;-62
2022/01/15 11:25:54;;;;;;;15.27;6.57;;;;;;;6.11;89.19;95234.53;4970270;28;20288;-61
2022/01/15 11:28:22;;;;;;;11.43;7.13;;;;;;;5.78;89.75;95209.50;4969581;28;20184;-62
2022/01/15 11:30:51;;;;;;;13.07;6.43;;;;;;;6.20;88.13;95234.03;4969989;28;20725;-62
2022/01/15 11:33:28;;;;;;;9.47;6.13;;;;;;;6.24;87.13;95246.34;4970096;28;20201;-63
2022/01/15 11:35:53;;;;;;;11.03;6.30;;;;;;;6.25;86.66;95263.13;4970121;28;20205;-63
2022/01/15 11:40:57;;;;;;;13.67;7.27;;;;;;;5.90;87.71;95218.91;4990019;23;20277;-61
2022/01/15 11:43:26;;;;;;;12.17;7.33;;;;;;;6.47;86.89;95258.44;4976684;23;20683;-60
2022/01/15 11:45:58;;;;;;;12.50;7.43;;;;;;;6.68;84.83;95292.56;4971901;28;20782;-62
2022/01/15 11:48:33;;;;;;;12.23;6.77;;;;;;;6.99;83.58;95305.88;4972026;28;20191;-63
2022/01/15 11:51:14;;;;;;;9.47;5.93;;;;;;;7.20;77.42;95337.44;4973143;28;20238;-65
2022/01/15 11:53:54;;;;;;;11.13;6.40;;;;;;;7.53;75.48;95333.66;4973444;28;20219;-62
2022/01/15 11:56:22;;;;;;;11.80;6.40;;;;;;;7.51;73.20;95340.50;4972722;28;20681;-63